sensor_id;sensor_type;location;lat;lon;timestamp;pressure;altitude;pressure_sealevel;temperature;humidity
7918;BME280;4004;42.624;23.386;2023-07-13T00:01:34;94443.97;;;22.20;63.65
7918;BME280;4004;42.624;23.386;2023-07-13T00:04:04;94441.59;;;22.22;63.25
7918;BME280;4004;42.624;23.386;2023-07-13T00:06:31;94449.81;;;22.22;63.32
7918;BME280;4004;42.624;23.386;2023-07-13T00:08:58;94436.16;;;22.18;62.94
7918;BME280;4004;42.624;23.386;2023-07-13T00:11:24;94444.38;;;22.18;63.12
7918;BME280;4004;42.624;23.386;2023-07-13T00:13:51;94438.19;;;22.14;63.76
7918;BME280;4004;42.624;23.386;2023-07-13T00:16:19;94438.69;;;22.09;64.50
7918;BME280;4004;42.624;23.386;2023-07-13T00:18:47;94427.53;;;22.00;65.65
7918;BME280;4004;42.624;23.386;2023-07-13T00:21:14;94432.25;;;21.79;68.54
7918;BME280;4004;42.624;23.386;2023-07-13T00:23:41;94423.16;;;21.62;69.83
7918;BME280;4004;42.624;23.386;2023-07-13T00:26:10;94436.06;;;21.38;72.66
7918;BME280;4004;42.624;23.386;2023-07-13T00:28:37;94428.88;;;21.24;74.93
7918;BME280;4004;42.624;23.386;2023-07-13T00:31:05;94438.09;;;21.10;76.31
7918;BME280;4004;42.624;23.386;2023-07-13T00:33:33;94430.16;;;21.16;76.67
7918;BME280;4004;42.624;23.386;2023-07-13T00:35:59;94426.97;;;21.21;76.87
7918;BME280;4004;42.624;23.386;2023-07-13T00:38:26;94425.38;;;21.24;77.23
7918;BME280;4004;42.624;23.386;2023-07-13T00:40:53;94419.59;;;21.18;78.34
7918;BME280;4004;42.624;23.386;2023-07-13T00:43:22;94423.53;;;21.17;78.25
7918;BME280;4004;42.624;23.386;2023-07-13T00:46:15;94418.19;;;21.10;79.05
7918;BME280;4004;42.624;23.386;2023-07-13T00:48:46;94422.41;;;21.15;79.06
7918;BME280;4004;42.624;23.386;2023-07-13T00:51:16;94422.41;;;21.15;77.96
7918;BME280;4004;42.624;23.386;2023-07-13T00:53:45;94420.13;;;21.09;78.41
7918;BME280;4004;42.624;23.386;2023-07-13T00:56:12;94418.09;;;21.14;78.51
7918;BME280;4004;42.624;23.386;2023-07-13T00:58:39;94407.53;;;21.16;78.59
7918;BME280;4004;42.624;23.386;2023-07-13T01:01:06;94414.56;;;21.17;78.25
7918;BME280;4004;42.624;23.386;2023-07-13T01:03:34;94409.91;;;21.14;78.02
7918;BME280;4004;42.624;23.386;2023-07-13T01:06:02;94410.31;;;21.12;78.11
7918;BME280;4004;42.624;23.386;2023-07-13T01:08:29;94412.34;;;21.08;78.92
7918;BME280;4004;42.624;23.386;2023-07-13T01:10:57;94407.25;;;21.10;79.20
7918;BME280;4004;42.624;23.386;2023-07-13T01:13:24;94404.84;;;21.12;78.42
7918;BME280;4004;42.624;23.386;2023-07-13T01:15:52;94401.06;;;21.06;78.62
7918;BME280;4004;42.624;23.386;2023-07-13T01:18:21;94405.03;;;21.01;79.31
7918;BME280;4004;42.624;23.386;2023-07-13T01:20:54;94415.66;;;20.96;78.67
7918;BME280;4004;42.624;23.386;2023-07-13T01:23:22;94409.72;;;20.77;78.99
7918;BME280;4004;42.624;23.386;2023-07-13T01:25:49;94416.63;;;20.85;79.95
7918;BME280;4004;42.624;23.386;2023-07-13T01:28:17;94404.03;;;20.64;81.74
7918;BME280;4004;42.624;23.386;2023-07-13T01:30:45;94405.41;;;20.49;83.62
7918;BME280;4004;42.624;23.386;2023-07-13T01:33:13;94403.88;;;20.48;83.88
7918;BME280;4004;42.624;23.386;2023-07-13T01:35:40;94410.44;;;20.50;84.62
7918;BME280;4004;42.624;23.386;2023-07-13T01:38:09;94411.25;;;20.47;85.15
7918;BME280;4004;42.624;23.386;2023-07-13T01:40:37;94403.06;;;20.47;85.61
7918;BME280;4004;42.624;23.386;2023-07-13T01:43:04;94407.09;;;20.39;86.27
7918;BME280;4004;42.624;23.386;2023-07-13T01:45:31;94402.88;;;20.35;87.10
7918;BME280;4004;42.624;23.386;2023-07-13T01:47:58;94405.75;;;20.24;87.56
7918;BME280;4004;42.624;23.386;2023-07-13T01:50:25;94406.50;;;20.24;87.85
7918;BME280;4004;42.624;23.386;2023-07-13T01:52:52;94400.59;;;20.29;87.93
7918;BME280;4004;42.624;23.386;2023-07-13T01:55:21;94393.97;;;20.31;87.46
7918;BME280;4004;42.624;23.386;2023-07-13T01:57:48;94395.13;;;20.29;86.78
7918;BME280;4004;42.624;23.386;2023-07-13T02:00:16;94401.06;;;20.24;87.63
7918;BME280;4004;42.624;23.386;2023-07-13T02:02:43;94406.25;;;20.15;88.49
7918;BME280;4004;42.624;23.386;2023-07-13T02:05:10;94399.75;;;20.05;89.42
7918;BME280;4004;42.624;23.386;2023-07-13T02:07:37;94405.38;;;19.91;90.80
7918;BME280;4004;42.624;23.386;2023-07-13T02:10:05;94409.97;;;19.98;91.26
7918;BME280;4004;42.624;23.386;2023-07-13T02:12:33;94405.06;;;19.85;92.15
7918;BME280;4004;42.624;23.386;2023-07-13T02:15:00;94413.72;;;19.77;93.09
7918;BME280;4004;42.624;23.386;2023-07-13T02:17:27;94411.72;;;19.81;93.15
7918;BME280;4004;42.624;23.386;2023-07-13T02:19:54;94403.88;;;19.86;92.52
7918;BME280;4004;42.624;23.386;2023-07-13T02:22:21;94403.13;;;19.82;92.54
7918;BME280;4004;42.624;23.386;2023-07-13T02:24:48;94402.34;;;19.82;93.50
7918;BME280;4004;42.624;23.386;2023-07-13T02:27:15;94403.84;;;19.90;93.12
7918;BME280;4004;42.624;23.386;2023-07-13T02:29:43;94414.69;;;19.94;90.94
7918;BME280;4004;42.624;23.386;2023-07-13T02:32:10;94416.28;;;19.91;91.63
7918;BME280;4004;42.624;23.386;2023-07-13T02:34:36;94401.91;;;19.87;91.19
7918;BME280;4004;42.624;23.386;2023-07-13T02:37:03;94425.56;;;19.97;91.15
7918;BME280;4004;42.624;23.386;2023-07-13T02:39:30;94423.25;;;19.96;91.24
7918;BME280;4004;42.624;23.386;2023-07-13T02:41:58;94425.09;;;20.06;89.45
7918;BME280;4004;42.624;23.386;2023-07-13T02:44:25;94419.19;;;20.07;87.79
7918;BME280;4004;42.624;23.386;2023-07-13T02:46:53;94413.09;;;19.96;88.68
7918;BME280;4004;42.624;23.386;2023-07-13T02:49:20;94418.13;;;20.01;89.32
7918;BME280;4004;42.624;23.386;2023-07-13T02:51:47;94409.94;;;20.01;89.30
7918;BME280;4004;42.624;23.386;2023-07-13T02:54:14;94422.09;;;19.93;90.25
7918;BME280;4004;42.624;23.386;2023-07-13T02:56:41;94412.88;;;19.83;89.97
7918;BME280;4004;42.624;23.386;2023-07-13T02:59:09;94417.50;;;19.86;87.75
7918;BME280;4004;42.624;23.386;2023-07-13T03:01:35;94418.78;;;20.09;88.67
7918;BME280;4004;42.624;23.386;2023-07-13T03:04:04;94409.38;;;20.14;88.14
7918;BME280;4004;42.624;23.386;2023-07-13T03:06:31;94408.16;;;20.18;88.27
7918;BME280;4004;42.624;23.386;2023-07-13T03:08:58;94418.25;;;20.21;89.01
7918;BME280;4004;42.624;23.386;2023-07-13T03:11:25;94421.19;;;20.34;88.17
7918;BME280;4004;42.624;23.386;2023-07-13T03:13:52;94426.59;;;20.41;87.62
7918;BME280;4004;42.624;23.386;2023-07-13T03:16:19;94428.75;;;20.54;86.82
7918;BME280;4004;42.624;23.386;2023-07-13T03:18:47;94424.88;;;20.51;87.03
7918;BME280;4004;42.624;23.386;2023-07-13T03:21:16;94432.72;;;20.49;87.59
7918;BME280;4004;42.624;23.386;2023-07-13T03:23:42;94427.53;;;20.58;86.73
7918;BME280;4004;42.624;23.386;2023-07-13T03:26:11;94431.41;;;20.88;84.50
7918;BME280;4004;42.624;23.386;2023-07-13T03:28:39;94434.88;;;21.16;82.16
7918;BME280;4004;42.624;23.386;2023-07-13T03:31:07;94436.63;;;21.53;79.32
7918;BME280;4004;42.624;23.386;2023-07-13T03:33:35;94437.38;;;21.97;77.37
7918;BME280;4004;42.624;23.386;2023-07-13T03:36:02;94435.59;;;22.47;73.24
7918;BME280;4004;42.624;23.386;2023-07-13T03:38:30;94442.72;;;22.24;73.92
7918;BME280;4004;42.624;23.386;2023-07-13T03:40:57;94438.69;;;22.49;73.47
7918;BME280;4004;42.624;23.386;2023-07-13T03:43:23;94429.09;;;22.93;69.80
7918;BME280;4004;42.624;23.386;2023-07-13T03:45:50;94433.06;;;23.25;68.72
7918;BME280;4004;42.624;23.386;2023-07-13T03:48:17;94430.94;;;23.78;65.67
7918;BME280;4004;42.624;23.386;2023-07-13T03:50:43;94436.69;;;23.84;64.70
7918;BME280;4004;42.624;23.386;2023-07-13T03:53:10;94434.56;;;24.47;62.77
7918;BME280;4004;42.624;23.386;2023-07-13T03:55:38;94448.69;;;25.26;59.57
7918;BME280;4004;42.624;23.386;2023-07-13T03:58:27;94443.00;;;26.24;55.95
7918;BME280;4004;42.624;23.386;2023-07-13T04:00:54;94442.72;;;27.16;53.32
7918;BME280;4004;42.624;23.386;2023-07-13T04:03:21;94440.28;;;28.14;50.26
7918;BME280;4004;42.624;23.386;2023-07-13T04:05:48;94444.50;;;29.22;47.39
7918;BME280;4004;42.624;23.386;2023-07-13T04:08:15;94446.75;;;29.90;45.35
7918;BME280;4004;42.624;23.386;2023-07-13T04:10:44;94449.06;;;30.61;44.00
7918;BME280;4004;42.624;23.386;2023-07-13T04:13:11;94456.56;;;31.34;42.23
7918;BME280;4004;42.624;23.386;2023-07-13T04:15:38;94457.28;;;32.06;40.81
7918;BME280;4004;42.624;23.386;2023-07-13T04:18:05;94456.13;;;32.38;39.55
7918;BME280;4004;42.624;23.386;2023-07-13T04:20:32;94457.91;;;32.15;39.26
7918;BME280;4004;42.624;23.386;2023-07-13T04:22:58;94460.84;;;32.06;39.73
7918;BME280;4004;42.624;23.386;2023-07-13T04:25:25;94457.31;;;32.52;38.89
7918;BME280;4004;42.624;23.386;2023-07-13T04:27:54;94458.59;;;32.57;38.34
7918;BME280;4004;42.624;23.386;2023-07-13T04:30:21;94466.41;;;32.06;38.96
7918;BME280;4004;42.624;23.386;2023-07-13T04:32:49;94483.00;;;32.00;39.35
7918;BME280;4004;42.624;23.386;2023-07-13T04:35:17;94480.03;;;31.48;39.88
7918;BME280;4004;42.624;23.386;2023-07-13T04:37:45;94470.88;;;30.53;41.49
7918;BME280;4004;42.624;23.386;2023-07-13T04:40:12;94461.88;;;30.58;41.76
7918;BME280;4004;42.624;23.386;2023-07-13T04:42:39;94473.06;;;30.64;41.39
7918;BME280;4004;42.624;23.386;2023-07-13T04:45:08;94475.78;;;30.88;41.39
7918;BME280;4004;42.624;23.386;2023-07-13T04:47:35;94476.53;;;30.73;41.25
7918;BME280;4004;42.624;23.386;2023-07-13T04:50:01;94477.56;;;30.61;41.38
7918;BME280;4004;42.624;23.386;2023-07-13T04:52:28;94484.97;;;30.25;42.13
7918;BME280;4004;42.624;23.386;2023-07-13T04:54:55;94483.47;;;30.00;43.06
7918;BME280;4004;42.624;23.386;2023-07-13T04:57:22;94492.94;;;30.32;42.64
7918;BME280;4004;42.624;23.386;2023-07-13T04:59:48;94497.06;;;30.37;42.04
7918;BME280;4004;42.624;23.386;2023-07-13T05:02:17;94492.78;;;30.66;41.54
7918;BME280;4004;42.624;23.386;2023-07-13T05:04:46;94495.69;;;31.66;40.14
7918;BME280;4004;42.624;23.386;2023-07-13T05:07:13;94496.88;;;32.41;38.74
7918;BME280;4004;42.624;23.386;2023-07-13T05:09:39;94498.13;;;32.61;37.82
7918;BME280;4004;42.624;23.386;2023-07-13T05:12:08;94503.66;;;33.08;37.21
7918;BME280;4004;42.624;23.386;2023-07-13T05:14:34;94508.81;;;32.01;38.38
7918;BME280;4004;42.624;23.386;2023-07-13T05:17:01;94505.34;;;31.21;39.82
7918;BME280;4004;42.624;23.386;2023-07-13T05:19:29;94504.31;;;30.88;40.84
7918;BME280;4004;42.624;23.386;2023-07-13T05:21:56;94506.31;;;31.03;41.42
7918;BME280;4004;42.624;23.386;2023-07-13T05:24:24;94506.59;;;31.70;40.32
7918;BME280;4004;42.624;23.386;2023-07-13T05:26:50;94513.41;;;32.25;40.11
7918;BME280;4004;42.624;23.386;2023-07-13T05:29:18;94516.34;;;32.88;38.75
7918;BME280;4004;42.624;23.386;2023-07-13T05:31:45;94513.13;;;33.53;37.92
7918;BME280;4004;42.624;23.386;2023-07-13T05:34:12;94516.09;;;33.81;37.28
7918;BME280;4004;42.624;23.386;2023-07-13T05:36:40;94513.34;;;34.41;36.09
7918;BME280;4004;42.624;23.386;2023-07-13T05:39:07;94515.53;;;34.92;35.20
7918;BME280;4004;42.624;23.386;2023-07-13T05:41:34;94521.66;;;35.52;34.70
7918;BME280;4004;42.624;23.386;2023-07-13T05:44:00;94521.13;;;35.70;34.53
7918;BME280;4004;42.624;23.386;2023-07-13T05:46:27;94522.88;;;35.90;34.23
7918;BME280;4004;42.624;23.386;2023-07-13T05:48:54;94523.56;;;36.25;33.98
7918;BME280;4004;42.624;23.386;2023-07-13T05:51:20;94526.06;;;36.40;33.91
7918;BME280;4004;42.624;23.386;2023-07-13T05:53:48;94523.63;;;36.02;33.91
7918;BME280;4004;42.624;23.386;2023-07-13T05:56:15;94522.53;;;36.34;33.91
7918;BME280;4004;42.624;23.386;2023-07-13T05:58:42;94527.72;;;35.96;34.56
7918;BME280;4004;42.624;23.386;2023-07-13T06:01:10;94519.38;;;36.54;34.07
7918;BME280;4004;42.624;23.386;2023-07-13T06:03:37;94532.41;;;36.93;32.54
7918;BME280;4004;42.624;23.386;2023-07-13T06:06:04;94522.22;;;37.31;32.48
7918;BME280;4004;42.624;23.386;2023-07-13T06:08:32;94516.47;;;37.18;32.74
7918;BME280;4004;42.624;23.386;2023-07-13T06:11:04;94515.25;;;37.13;32.73
7918;BME280;4004;42.624;23.386;2023-07-13T06:13:31;94505.69;;;37.28;32.61
7918;BME280;4004;42.624;23.386;2023-07-13T06:15:58;94516.75;;;37.15;32.47
7918;BME280;4004;42.624;23.386;2023-07-13T06:18:25;94509.91;;;37.10;32.53
7918;BME280;4004;42.624;23.386;2023-07-13T06:20:52;94510.41;;;37.08;32.80
7918;BME280;4004;42.624;23.386;2023-07-13T06:23:18;94518.16;;;36.91;33.25
7918;BME280;4004;42.624;23.386;2023-07-13T06:25:45;94526.47;;;36.66;32.15
7918;BME280;4004;42.624;23.386;2023-07-13T06:28:13;94519.75;;;37.22;31.00
7918;BME280;4004;42.624;23.386;2023-07-13T06:30:40;94525.22;;;37.03;30.33
7918;BME280;4004;42.624;23.386;2023-07-13T06:33:07;94518.66;;;37.31;30.46
7918;BME280;4004;42.624;23.386;2023-07-13T06:35:33;94517.00;;;37.47;30.65
7918;BME280;4004;42.624;23.386;2023-07-13T06:38:00;94515.28;;;37.68;30.05
7918;BME280;4004;42.624;23.386;2023-07-13T06:40:27;94515.81;;;37.67;30.18
7918;BME280;4004;42.624;23.386;2023-07-13T06:42:55;94517.53;;;38.00;29.69
7918;BME280;4004;42.624;23.386;2023-07-13T06:45:24;94515.28;;;37.68;30.96
7918;BME280;4004;42.624;23.386;2023-07-13T06:47:50;94515.13;;;36.89;31.12
7918;BME280;4004;42.624;23.386;2023-07-13T06:50:17;94527.03;;;36.48;32.00
7918;BME280;4004;42.624;23.386;2023-07-13T06:52:45;94519.53;;;36.20;32.98
7918;BME280;4004;42.624;23.386;2023-07-13T06:55:11;94520.63;;;35.83;33.23
7918;BME280;4004;42.624;23.386;2023-07-13T06:57:38;94518.63;;;35.67;33.22
7918;BME280;4004;42.624;23.386;2023-07-13T07:00:06;94517.06;;;35.55;33.44
7918;BME280;4004;42.624;23.386;2023-07-13T07:02:36;94513.28;;;35.41;34.44
7918;BME280;4004;42.624;23.386;2023-07-13T07:05:03;94509.66;;;34.67;35.41
7918;BME280;4004;42.624;23.386;2023-07-13T07:07:30;94510.69;;;34.81;36.24
7918;BME280;4004;42.624;23.386;2023-07-13T07:09:57;94508.25;;;33.85;38.03
7918;BME280;4004;42.624;23.386;2023-07-13T07:12:23;94513.19;;;33.27;38.06
7918;BME280;4004;42.624;23.386;2023-07-13T07:14:50;94518.38;;;33.45;37.98
7918;BME280;4004;42.624;23.386;2023-07-13T07:17:17;94507.22;;;33.45;37.28
7918;BME280;4004;42.624;23.386;2023-07-13T07:19:45;94512.47;;;33.64;37.28
7918;BME280;4004;42.624;23.386;2023-07-13T07:22:12;94513.34;;;33.50;37.59
7918;BME280;4004;42.624;23.386;2023-07-13T07:24:39;94511.63;;;33.26;37.29
7918;BME280;4004;42.624;23.386;2023-07-13T07:27:06;94503.75;;;33.56;36.21
7918;BME280;4004;42.624;23.386;2023-07-13T07:29:32;94512.88;;;33.57;34.96
7918;BME280;4004;42.624;23.386;2023-07-13T07:31:59;94506.53;;;33.56;34.91
7918;BME280;4004;42.624;23.386;2023-07-13T07:34:26;94510.97;;;34.12;34.82
7918;BME280;4004;42.624;23.386;2023-07-13T07:36:54;94510.56;;;33.93;36.61
7918;BME280;4004;42.624;23.386;2023-07-13T07:39:21;94504.25;;;33.92;37.06
7918;BME280;4004;42.624;23.386;2023-07-13T07:41:48;94503.41;;;33.43;38.46
7918;BME280;4004;42.624;23.386;2023-07-13T07:44:14;94502.78;;;33.28;37.24
7918;BME280;4004;42.624;23.386;2023-07-13T07:46:41;94500.28;;;33.30;37.57
7918;BME280;4004;42.624;23.386;2023-07-13T07:49:08;94497.19;;;33.22;38.04
7918;BME280;4004;42.624;23.386;2023-07-13T07:51:35;94492.03;;;33.09;38.58
7918;BME280;4004;42.624;23.386;2023-07-13T07:54:03;94480.38;;;33.48;38.10
7918;BME280;4004;42.624;23.386;2023-07-13T07:56:30;94486.63;;;33.69;38.55
7918;BME280;4004;42.624;23.386;2023-07-13T07:58:56;94482.19;;;33.14;39.04
7918;BME280;4004;42.624;23.386;2023-07-13T08:01:23;94479.63;;;32.84;40.14
7918;BME280;4004;42.624;23.386;2023-07-13T08:03:50;94484.59;;;32.74;40.01
7918;BME280;4004;42.624;23.386;2023-07-13T08:06:17;94476.84;;;32.84;40.01
7918;BME280;4004;42.624;23.386;2023-07-13T08:08:45;94467.19;;;32.79;40.80
7918;BME280;4004;42.624;23.386;2023-07-13T08:11:13;94463.16;;;33.12;39.72
7918;BME280;4004;42.624;23.386;2023-07-13T08:13:40;94461.28;;;32.72;40.62
7918;BME280;4004;42.624;23.386;2023-07-13T08:16:06;94453.03;;;32.31;41.10
7918;BME280;4004;42.624;23.386;2023-07-13T08:18:33;94441.22;;;32.15;41.34
7918;BME280;4004;42.624;23.386;2023-07-13T08:21:03;94454.63;;;31.96;42.69
7918;BME280;4004;42.624;23.386;2023-07-13T08:23:30;94452.72;;;32.03;41.58
7918;BME280;4004;42.624;23.386;2023-07-13T08:25:57;94449.72;;;32.32;40.97
7918;BME280;4004;42.624;23.386;2023-07-13T08:28:28;94417.22;;;31.77;42.88
7918;BME280;4004;42.624;23.386;2023-07-13T08:30:54;94438.03;;;32.02;43.00
7918;BME280;4004;42.624;23.386;2023-07-13T08:33:22;94438.38;;;32.10;42.51
7918;BME280;4004;42.624;23.386;2023-07-13T08:35:49;94437.88;;;32.11;41.30
7918;BME280;4004;42.624;23.386;2023-07-13T08:38:17;94437.56;;;32.30;42.34
7918;BME280;4004;42.624;23.386;2023-07-13T08:40:45;94438.56;;;32.27;41.19
7918;BME280;4004;42.624;23.386;2023-07-13T08:43:17;94437.91;;;32.37;41.42
7918;BME280;4004;42.624;23.386;2023-07-13T08:45:49;94436.28;;;32.51;42.12
7918;BME280;4004;42.624;23.386;2023-07-13T08:48:20;94433.72;;;32.74;40.95
7918;BME280;4004;42.624;23.386;2023-07-13T08:50:55;94432.44;;;32.75;40.94
7918;BME280;4004;42.624;23.386;2023-07-13T08:53:24;94439.63;;;32.55;40.33
7918;BME280;4004;42.624;23.386;2023-07-13T08:55:58;94436.00;;;32.49;40.66
7918;BME280;4004;42.624;23.386;2023-07-13T08:58:25;94437.13;;;32.37;40.50
7918;BME280;4004;42.624;23.386;2023-07-13T09:01:02;94436.72;;;32.44;40.48
7918;BME280;4004;42.624;23.386;2023-07-13T09:03:37;94439.63;;;32.35;40.23
7918;BME280;4004;42.624;23.386;2023-07-13T09:06:08;94443.22;;;32.35;40.26
7918;BME280;4004;42.624;23.386;2023-07-13T09:08:48;94423.94;;;32.32;39.72
7918;BME280;4004;42.624;23.386;2023-07-13T09:11:26;94458.59;;;32.57;39.87
7918;BME280;4004;42.624;23.386;2023-07-13T09:14:00;94461.81;;;32.50;39.41
7918;BME280;4004;42.624;23.386;2023-07-13T09:16:33;94468.28;;;32.41;40.78
7918;BME280;4004;42.624;23.386;2023-07-13T09:19:02;94474.44;;;32.25;40.62
7918;BME280;4004;42.624;23.386;2023-07-13T09:21:32;94469.09;;;32.21;40.95
7918;BME280;4004;42.624;23.386;2023-07-13T09:24:26;94471.84;;;32.41;40.37
7918;BME280;4004;42.624;23.386;2023-07-13T09:26:55;94464.91;;;32.52;39.17
7918;BME280;4004;42.624;23.386;2023-07-13T09:29:27;94465.34;;;32.50;40.65
7918;BME280;4004;42.624;23.386;2023-07-13T09:31:58;94466.53;;;32.43;40.47
7918;BME280;4004;42.624;23.386;2023-07-13T09:34:28;94463.91;;;32.34;40.04
7918;BME280;4004;42.624;23.386;2023-07-13T09:36:56;94471.91;;;32.47;39.84
7918;BME280;4004;42.624;23.386;2023-07-13T09:39:26;94460.47;;;32.39;40.71
7918;BME280;4004;42.624;23.386;2023-07-13T09:41:58;94467.94;;;32.54;40.23
7918;BME280;4004;42.624;23.386;2023-07-13T09:44:29;94464.53;;;32.44;42.01
7918;BME280;4004;42.624;23.386;2023-07-13T09:46:58;94466.81;;;32.19;41.43
7918;BME280;4004;42.624;23.386;2023-07-13T09:49:25;94460.66;;;31.95;41.00
7918;BME280;4004;42.624;23.386;2023-07-13T09:51:58;94458.88;;;31.92;41.82
7918;BME280;4004;42.624;23.386;2023-07-13T09:54:26;94451.94;;;32.02;41.72
7918;BME280;4004;42.624;23.386;2023-07-13T09:56:56;94441.72;;;32.14;40.66
7918;BME280;4004;42.624;23.386;2023-07-13T09:59:31;94436.47;;;32.21;41.00
7918;BME280;4004;42.624;23.386;2023-07-13T10:01:59;94429.97;;;32.30;40.51
7918;BME280;4004;42.624;23.386;2023-07-13T10:04:31;94430.88;;;32.42;40.54
7918;BME280;4004;42.624;23.386;2023-07-13T10:07:05;94430.84;;;32.62;39.37
7918;BME280;4004;42.624;23.386;2023-07-13T10:09:32;94426.84;;;32.69;39.16
7918;BME280;4004;42.624;23.386;2023-07-13T10:11:59;94416.59;;;32.55;39.84
7918;BME280;4004;42.624;23.386;2023-07-13T10:14:27;94412.13;;;32.63;39.01
7918;BME280;4004;42.624;23.386;2023-07-13T10:17:01;94418.44;;;32.63;40.01
7918;BME280;4004;42.624;23.386;2023-07-13T10:19:31;94405.56;;;32.40;38.83
7918;BME280;4004;42.624;23.386;2023-07-13T10:22:00;94417.91;;;32.33;40.16
7918;BME280;4004;42.624;23.386;2023-07-13T10:24:30;94409.38;;;32.16;40.14
7918;BME280;4004;42.624;23.386;2023-07-13T10:27:01;94414.09;;;32.10;40.22
7918;BME280;4004;42.624;23.386;2023-07-13T10:29:35;94414.09;;;32.10;40.55
7918;BME280;4004;42.624;23.386;2023-07-13T10:32:08;94412.97;;;32.22;39.96
7918;BME280;4004;42.624;23.386;2023-07-13T10:34:36;94400.47;;;32.12;40.26
7918;BME280;4004;42.624;23.386;2023-07-13T10:37:05;94399.00;;;32.17;40.23
7918;BME280;4004;42.624;23.386;2023-07-13T10:39:34;94395.34;;;32.05;40.44
7918;BME280;4004;42.624;23.386;2023-07-13T10:42:05;94399.22;;;32.13;39.98
7918;BME280;4004;42.624;23.386;2023-07-13T10:44:33;94390.50;;;32.26;39.64
7918;BME280;4004;42.624;23.386;2023-07-13T10:47:10;94394.75;;;32.21;39.55
7918;BME280;4004;42.624;23.386;2023-07-13T10:49:40;94394.22;;;32.17;38.85
7918;BME280;4004;42.624;23.386;2023-07-13T10:52:42;94380.69;;;32.31;39.16
7918;BME280;4004;42.624;23.386;2023-07-13T10:55:31;94378.50;;;32.40;39.40
7918;BME280;4004;42.624;23.386;2023-07-13T10:58:00;94381.53;;;32.42;39.21
7918;BME280;4004;42.624;23.386;2023-07-13T11:00:31;94370.09;;;32.35;38.00
7918;BME280;4004;42.624;23.386;2023-07-13T11:03:01;94365.34;;;32.41;37.58
7918;BME280;4004;42.624;23.386;2023-07-13T11:05:30;94368.94;;;32.47;37.58
7918;BME280;4004;42.624;23.386;2023-07-13T11:08:12;94357.66;;;32.56;37.75
7918;BME280;4004;42.624;23.386;2023-07-13T11:10:48;94357.75;;;32.68;37.07
7918;BME280;4004;42.624;23.386;2023-07-13T11:13:37;94358.28;;;32.72;39.70
7918;BME280;4004;42.624;23.386;2023-07-13T11:16:12;94351.47;;;32.73;38.33
7918;BME280;4004;42.624;23.386;2023-07-13T11:18:44;94359.22;;;32.63;39.03
7918;BME280;4004;42.624;23.386;2023-07-13T11:21:16;94334.34;;;32.54;38.54
7918;BME280;4004;42.624;23.386;2023-07-13T11:23:44;94339.97;;;32.59;36.43
7918;BME280;4004;42.624;23.386;2023-07-13T11:26:41;94334.78;;;32.73;37.05
7918;BME280;4004;42.624;23.386;2023-07-13T11:29:12;94335.34;;;32.88;37.31
7918;BME280;4004;42.624;23.386;2023-07-13T11:31:52;94343.28;;;32.95;36.72
7918;BME280;4004;42.624;23.386;2023-07-13T11:34:25;94331.81;;;32.88;37.20
7918;BME280;4004;42.624;23.386;2023-07-13T11:36:53;94336.69;;;32.98;36.75
7918;BME280;4004;42.624;23.386;2023-07-13T11:39:27;94326.78;;;32.92;36.91
7918;BME280;4004;42.624;23.386;2023-07-13T11:41:59;94326.56;;;32.95;37.23
7918;BME280;4004;42.624;23.386;2023-07-13T11:44:28;94322.31;;;33.06;36.73
7918;BME280;4004;42.624;23.386;2023-07-13T11:46:57;94327.00;;;33.26;37.31
7918;BME280;4004;42.624;23.386;2023-07-13T11:49:29;94327.25;;;33.22;35.77
7918;BME280;4004;42.624;23.386;2023-07-13T11:51:57;94318.16;;;33.33;35.40
7918;BME280;4004;42.624;23.386;2023-07-13T11:54:27;94326.22;;;33.25;34.79
7918;BME280;4004;42.624;23.386;2023-07-13T11:56:55;94313.31;;;33.22;35.98
7918;BME280;4004;42.624;23.386;2023-07-13T11:59:26;94323.22;;;33.34;33.71
7918;BME280;4004;42.624;23.386;2023-07-13T12:01:54;94321.72;;;33.33;33.14
7918;BME280;4004;42.624;23.386;2023-07-13T12:04:26;94306.28;;;33.38;32.92
7918;BME280;4004;42.624;23.386;2023-07-13T12:07:05;94304.56;;;33.52;33.52
7918;BME280;4004;42.624;23.386;2023-07-13T12:09:34;94299.75;;;33.52;32.81
7918;BME280;4004;42.624;23.386;2023-07-13T12:12:02;94301.84;;;33.63;34.05
7918;BME280;4004;42.624;23.386;2023-07-13T12:14:33;94288.59;;;33.52;33.55
7918;BME280;4004;42.624;23.386;2023-07-13T12:17:00;94301.25;;;33.48;34.80
7918;BME280;4004;42.624;23.386;2023-07-13T12:19:28;94291.91;;;33.51;35.22
7918;BME280;4004;42.624;23.386;2023-07-13T12:21:56;94297.28;;;33.65;34.78
7918;BME280;4004;42.624;23.386;2023-07-13T12:24:26;94281.31;;;33.66;35.48
7918;BME280;4004;42.624;23.386;2023-07-13T12:26:54;94285.59;;;33.61;34.07
7918;BME280;4004;42.624;23.386;2023-07-13T12:29:21;94280.97;;;33.53;33.55
7918;BME280;4004;42.624;23.386;2023-07-13T12:31:49;94272.69;;;33.58;34.47
7918;BME280;4004;42.624;23.386;2023-07-13T12:34:19;94270.34;;;33.51;33.26
7918;BME280;4004;42.624;23.386;2023-07-13T12:36:47;94275.72;;;33.60;34.57
7918;BME280;4004;42.624;23.386;2023-07-13T12:39:18;94272.19;;;33.60;32.60
7918;BME280;4004;42.624;23.386;2023-07-13T12:41:47;94274.22;;;33.65;33.18
7918;BME280;4004;42.624;23.386;2023-07-13T12:44:16;94265.34;;;33.61;32.24
7918;BME280;4004;42.624;23.386;2023-07-13T12:46:56;94255.47;;;33.65;32.71
7918;BME280;4004;42.624;23.386;2023-07-13T12:49:25;94257.75;;;33.67;33.51
7918;BME280;4004;42.624;23.386;2023-07-13T12:51:56;94256.47;;;33.68;33.81
7918;BME280;4004;42.624;23.386;2023-07-13T12:54:24;94257.78;;;33.78;33.27
7918;BME280;4004;42.624;23.386;2023-07-13T12:56:53;94245.59;;;33.81;32.44
7918;BME280;4004;42.624;23.386;2023-07-13T12:59:22;94254.72;;;33.88;33.48
7918;BME280;4004;42.624;23.386;2023-07-13T13:01:51;94253.97;;;33.81;34.46
7918;BME280;4004;42.624;23.386;2023-07-13T13:04:20;94251.19;;;33.76;32.80
7918;BME280;4004;42.624;23.386;2023-07-13T13:06:47;94243.81;;;33.78;33.32
7918;BME280;4004;42.624;23.386;2023-07-13T13:09:16;94243.31;;;33.74;31.95
7918;BME280;4004;42.624;23.386;2023-07-13T13:11:43;94242.06;;;33.75;32.62
7918;BME280;4004;42.624;23.386;2023-07-13T13:14:11;94234.44;;;33.81;32.34
7918;BME280;4004;42.624;23.386;2023-07-13T13:16:46;94232.69;;;33.90;31.46
7918;BME280;4004;42.624;23.386;2023-07-13T13:19:16;94232.69;;;33.95;33.38